sensor_id;sensor_type;location;lat;lon;timestamp;pressure;altitude;pressure_sealevel;temperature;humidity
84617;BME280;74846;51.126;16.944;2024-02-04T00:02:25;100332.71;;;8.87;78.92
84617;BME280;74846;51.126;16.944;2024-02-04T00:04:53;100319.33;;;8.77;79.13
84617;BME280;74846;51.126;16.944;2024-02-04T00:07:21;100331.43;;;8.77;79.31
84617;BME280;74846;51.126;16.944;2024-02-04T00:09:49;100324.93;;;8.77;79.02
84617;BME280;74846;51.126;16.944;2024-02-04T00:12:17;100334.48;;;8.75;78.58
84617;BME280;74846;51.126;16.944;2024-02-04T00:14:45;100332.27;;;8.71;78.48
84617;BME280;74846;51.126;16.944;2024-02-04T00:17:13;100330.76;;;8.69;78.17
84617;BME280;74846;51.126;16.944;2024-02-04T00:19:42;100325.46;;;8.63;77.79
84617;BME280;74846;51.126;16.944;2024-02-04T00:22:11;100330.58;;;8.59;77.72
84617;BME280;74846;51.126;16.944;2024-02-04T00:24:39;100329.19;;;8.58;77.36
84617;BME280;74846;51.126;16.944;2024-02-04T00:27:07;100317.45;;;8.51;77.09
84617;BME280;74846;51.126;16.944;2024-02-04T00:29:35;100327.38;;;8.49;77.31
84617;BME280;74846;51.126;16.944;2024-02-04T00:32:03;100330.36;;;8.53;76.58
84617;BME280;74846;51.126;16.944;2024-02-04T00:34:32;100333.96;;;8.51;76.43
84617;BME280;74846;51.126;16.944;2024-02-04T00:37:01;100334.95;;;8.48;76.42
84617;BME280;74846;51.126;16.944;2024-02-04T00:39:29;100333.22;;;8.48;76.70
84617;BME280;74846;51.126;16.944;2024-02-04T00:41:57;100327.13;;;8.47;76.67
84617;BME280;74846;51.126;16.944;2024-02-04T00:44:25;100325.17;;;8.44;76.48
84617;BME280;74846;51.126;16.944;2024-02-04T00:46:52;100327.41;;;8.41;76.55
84617;BME280;74846;51.126;16.944;2024-02-04T00:49:20;100331.19;;;8.35;76.79
84617;BME280;74846;51.126;16.944;2024-02-04T00:51:49;100336.14;;;8.38;76.73
84617;BME280;74846;51.126;16.944;2024-02-04T00:54:17;100329.37;;;8.37;76.80
84617;BME280;74846;51.126;16.944;2024-02-04T00:56:45;100328.48;;;8.37;76.72
84617;BME280;74846;51.126;16.944;2024-02-04T00:59:13;100330.78;;;8.40;76.53
84617;BME280;74846;51.126;16.944;2024-02-04T01:01:41;100338.04;;;8.42;76.47
84617;BME280;74846;51.126;16.944;2024-02-04T01:04:10;100340.30;;;8.35;76.42
84617;BME280;74846;51.126;16.944;2024-02-04T01:06:38;100340.48;;;8.31;76.46
84617;BME280;74846;51.126;16.944;2024-02-04T01:09:23;100345.99;;;8.26;76.66
84617;BME280;74846;51.126;16.944;2024-02-04T01:11:51;100342.67;;;8.30;76.56
84617;BME280;74846;51.126;16.944;2024-02-04T01:14:21;100341.67;;;8.32;76.37
84617;BME280;74846;51.126;16.944;2024-02-04T01:16:48;100338.14;;;8.33;76.14
84617;BME280;74846;51.126;16.944;2024-02-04T01:19:16;100333.77;;;8.33;76.19
84617;BME280;74846;51.126;16.944;2024-02-04T01:21:45;100341.00;;;8.32;76.24
84617;BME280;74846;51.126;16.944;2024-02-04T01:24:13;100338.58;;;8.27;76.36
84617;BME280;74846;51.126;16.944;2024-02-04T01:26:41;100335.35;;;8.24;76.35
84617;BME280;74846;51.126;16.944;2024-02-04T01:29:09;100332.18;;;8.21;76.56
84617;BME280;74846;51.126;16.944;2024-02-04T01:31:37;100329.41;;;8.20;76.74
84617;BME280;74846;51.126;16.944;2024-02-04T01:34:05;100330.42;;;8.17;76.84
84617;BME280;74846;51.126;16.944;2024-02-04T01:36:33;100325.33;;;8.17;76.98
84617;BME280;74846;51.126;16.944;2024-02-04T01:39:01;100328.45;;;8.15;76.86
84617;BME280;74846;51.126;16.944;2024-02-04T01:41:29;100325.75;;;8.12;77.14
84617;BME280;74846;51.126;16.944;2024-02-04T01:43:57;100321.84;;;8.10;77.08
84617;BME280;74846;51.126;16.944;2024-02-04T01:46:25;100325.90;;;8.09;77.28
84617;BME280;74846;51.126;16.944;2024-02-04T01:48:53;100322.83;;;8.11;77.17
84617;BME280;74846;51.126;16.944;2024-02-04T01:51:22;100304.67;;;8.06;77.01
84617;BME280;74846;51.126;16.944;2024-02-04T01:53:50;100307.13;;;8.10;77.02
84617;BME280;74846;51.126;16.944;2024-02-04T01:56:19;100305.52;;;8.10;77.18
84617;BME280;74846;51.126;16.944;2024-02-04T01:58:47;100300.26;;;8.10;77.51
84617;BME280;74846;51.126;16.944;2024-02-04T02:01:16;100292.36;;;8.07;77.65
84617;BME280;74846;51.126;16.944;2024-02-04T02:03:44;100302.34;;;8.15;77.79
84617;BME280;74846;51.126;16.944;2024-02-04T02:06:12;100288.45;;;8.12;77.89
84617;BME280;74846;51.126;16.944;2024-02-04T02:08:41;100291.63;;;8.19;77.94
84617;BME280;74846;51.126;16.944;2024-02-04T02:11:50;100295.08;;;8.20;78.02
84617;BME280;74846;51.126;16.944;2024-02-04T02:14:17;100295.14;;;8.22;77.93
84617;BME280;74846;51.126;16.944;2024-02-04T02:16:46;100307.34;;;8.24;78.22
84617;BME280;74846;51.126;16.944;2024-02-04T02:22:48;100309.13;;;8.23;77.79
84617;BME280;74846;51.126;16.944;2024-02-04T02:25:20;100303.24;;;8.26;77.93
84617;BME280;74846;51.126;16.944;2024-02-04T02:27:49;100298.02;;;8.29;78.04
84617;BME280;74846;51.126;16.944;2024-02-04T02:30:18;100293.20;;;8.31;78.18
84617;BME280;74846;51.126;16.944;2024-02-04T02:32:47;100292.31;;;8.35;77.98
84617;BME280;74846;51.126;16.944;2024-02-04T02:35:16;100291.39;;;8.39;77.98
84617;BME280;74846;51.126;16.944;2024-02-04T02:42:47;100290.02;;;8.42;77.60
84617;BME280;74846;51.126;16.944;2024-02-04T02:45:19;100292.29;;;8.42;77.17
84617;BME280;74846;51.126;16.944;2024-02-04T02:47:50;100296.95;;;8.44;76.90
84617;BME280;74846;51.126;16.944;2024-02-04T02:50:19;100280.04;;;8.38;76.41
84617;BME280;74846;51.126;16.944;2024-02-04T02:52:47;100277.83;;;8.37;76.29
84617;BME280;74846;51.126;16.944;2024-02-04T02:55:15;100275.97;;;8.32;75.55
84617;BME280;74846;51.126;16.944;2024-02-04T02:57:44;100273.77;;;8.23;75.15
84617;BME280;74846;51.126;16.944;2024-02-04T03:00:12;100287.70;;;8.21;75.09
84617;BME280;74846;51.126;16.944;2024-02-04T03:02:40;100286.39;;;8.11;75.10
84617;BME280;74846;51.126;16.944;2024-02-04T03:05:08;100293.42;;;8.14;75.09
84617;BME280;74846;51.126;16.944;2024-02-04T03:07:37;100287.39;;;8.12;75.02
84617;BME280;74846;51.126;16.944;2024-02-04T03:10:05;100277.27;;;8.11;74.77
84617;BME280;74846;51.126;16.944;2024-02-04T03:12:33;100278.58;;;8.06;74.72
84617;BME280;74846;51.126;16.944;2024-02-04T03:15:01;100278.44;;;8.02;74.53
84617;BME280;74846;51.126;16.944;2024-02-04T03:17:29;100276.78;;;7.92;74.67
84617;BME280;74846;51.126;16.944;2024-02-04T03:19:58;100280.64;;;7.92;74.90
84617;BME280;74846;51.126;16.944;2024-02-04T03:22:26;100282.64;;;7.91;74.77
84617;BME280;74846;51.126;16.944;2024-02-04T03:24:54;100284.68;;;7.92;74.60
84617;BME280;74846;51.126;16.944;2024-02-04T03:27:22;100296.18;;;7.93;74.43
84617;BME280;74846;51.126;16.944;2024-02-04T03:29:50;100292.87;;;7.93;74.21
84617;BME280;74846;51.126;16.944;2024-02-04T03:32:18;100280.94;;;7.86;74.04
84617;BME280;74846;51.126;16.944;2024-02-04T03:34:46;100280.64;;;7.88;74.06
84617;BME280;74846;51.126;16.944;2024-02-04T03:37:14;100288.73;;;7.91;74.03
84617;BME280;74846;51.126;16.944;2024-02-04T03:39:42;100294.39;;;7.90;74.05
84617;BME280;74846;51.126;16.944;2024-02-04T03:42:10;100294.74;;;7.87;73.79
84617;BME280;74846;51.126;16.944;2024-02-04T03:44:38;100293.33;;;7.87;73.60
84617;BME280;74846;51.126;16.944;2024-02-04T03:47:06;100298.08;;;7.83;73.53
84617;BME280;74846;51.126;16.944;2024-02-04T03:49:34;100295.96;;;7.79;73.47
84617;BME280;74846;51.126;16.944;2024-02-04T03:52:02;100296.42;;;7.77;73.41
84617;BME280;74846;51.126;16.944;2024-02-04T03:54:30;100309.89;;;7.77;73.35
84617;BME280;74846;51.126;16.944;2024-02-04T03:56:58;100307.14;;;7.76;72.30
84617;BME280;74846;51.126;16.944;2024-02-04T03:59:26;100310.80;;;7.72;70.83
84617;BME280;74846;51.126;16.944;2024-02-04T04:01:54;100316.03;;;7.73;69.66
84617;BME280;74846;51.126;16.944;2024-02-04T04:04:22;100322.25;;;7.67;69.14
84617;BME280;74846;51.126;16.944;2024-02-04T04:06:51;100326.34;;;7.61;69.41
84617;BME280;74846;51.126;16.944;2024-02-04T04:09:19;100321.18;;;7.56;69.38
84617;BME280;74846;51.126;16.944;2024-02-04T04:11:47;100320.59;;;7.53;69.60
84617;BME280;74846;51.126;16.944;2024-02-04T04:14:15;100324.67;;;7.52;69.31
84617;BME280;74846;51.126;16.944;2024-02-04T04:16:43;100325.30;;;7.50;68.96
84617;BME280;74846;51.126;16.944;2024-02-04T04:19:11;100331.79;;;7.45;69.05
84617;BME280;74846;51.126;16.944;2024-02-04T04:21:39;100328.14;;;7.40;69.06
84617;BME280;74846;51.126;16.944;2024-02-04T04:24:08;100329.99;;;7.42;69.22
84617;BME280;74846;51.126;16.944;2024-02-04T04:26:36;100325.33;;;7.45;69.12
84617;BME280;74846;51.126;16.944;2024-02-04T04:29:04;100328.53;;;7.48;69.43
84617;BME280;74846;51.126;16.944;2024-02-04T04:31:32;100332.91;;;7.44;69.49
84617;BME280;74846;51.126;16.944;2024-02-04T04:34:00;100330.28;;;7.43;69.44
84617;BME280;74846;51.126;16.944;2024-02-04T04:36:28;100317.36;;;7.35;69.74
84617;BME280;74846;51.126;16.944;2024-02-04T04:38:56;100322.05;;;7.36;69.90
84617;BME280;74846;51.126;16.944;2024-02-04T04:41:24;100334.80;;;7.40;70.13
84617;BME280;74846;51.126;16.944;2024-02-04T04:43:52;100332.45;;;7.42;70.49
84617;BME280;74846;51.126;16.944;2024-02-04T04:46:20;100329.34;;;7.45;70.70
84617;BME280;74846;51.126;16.944;2024-02-04T04:48:48;100328.60;;;7.46;70.71
84617;BME280;74846;51.126;16.944;2024-02-04T04:51:16;100326.27;;;7.43;70.67
84617;BME280;74846;51.126;16.944;2024-02-04T04:53:44;100330.77;;;7.40;70.68
84617;BME280;74846;51.126;16.944;2024-02-04T04:56:12;100328.20;;;7.31;70.72
84617;BME280;74846;51.126;16.944;2024-02-04T04:58:40;100338.31;;;7.32;70.92
84617;BME280;74846;51.126;16.944;2024-02-04T05:01:08;100340.19;;;7.29;71.19
84617;BME280;74846;51.126;16.944;2024-02-04T05:03:36;100335.46;;;7.25;71.41
84617;BME280;74846;51.126;16.944;2024-02-04T05:06:04;100314.33;;;7.20;71.41
84617;BME280;74846;51.126;16.944;2024-02-04T05:08:33;100319.30;;;7.23;71.28
84617;BME280;74846;51.126;16.944;2024-02-04T05:11:01;100314.02;;;7.15;71.17
84617;BME280;74846;51.126;16.944;2024-02-04T05:13:29;100313.65;;;7.08;71.30
84617;BME280;74846;51.126;16.944;2024-02-04T05:15:56;100309.84;;;7.03;71.41
84617;BME280;74846;51.126;16.944;2024-02-04T05:18:25;100310.46;;;7.00;71.22
84617;BME280;74846;51.126;16.944;2024-02-04T05:20:55;100321.02;;;7.00;71.30
84617;BME280;74846;51.126;16.944;2024-02-04T05:23:23;100324.29;;;6.96;71.49
84617;BME280;74846;51.126;16.944;2024-02-04T05:25:51;100322.76;;;6.91;71.69
84617;BME280;74846;51.126;16.944;2024-02-04T05:28:19;100326.73;;;6.88;71.53
84617;BME280;74846;51.126;16.944;2024-02-04T05:30:47;100337.63;;;6.83;71.39
84617;BME280;74846;51.126;16.944;2024-02-04T05:33:15;100344.41;;;6.79;71.39
84617;BME280;74846;51.126;16.944;2024-02-04T05:35:43;100349.21;;;6.73;71.53
84617;BME280;74846;51.126;16.944;2024-02-04T05:38:12;100348.90;;;6.68;71.60
84617;BME280;74846;51.126;16.944;2024-02-04T05:40:39;100359.80;;;6.67;71.73
84617;BME280;74846;51.126;16.944;2024-02-04T05:43:08;100356.82;;;6.66;71.68
84617;BME280;74846;51.126;16.944;2024-02-04T05:45:40;100356.07;;;6.63;71.59
84617;BME280;74846;51.126;16.944;2024-02-04T05:48:09;100350.71;;;6.66;71.40
84617;BME280;74846;51.126;16.944;2024-02-04T05:50:37;100350.16;;;6.62;71.22
84617;BME280;74846;51.126;16.944;2024-02-04T05:53:05;100345.21;;;6.59;71.20
84617;BME280;74846;51.126;16.944;2024-02-04T05:55:33;100345.61;;;6.58;70.95
84617;BME280;74846;51.126;16.944;2024-02-04T05:58:01;100345.96;;;6.54;71.12
84617;BME280;74846;51.126;16.944;2024-02-04T06:00:29;100342.02;;;6.52;71.35
84617;BME280;74846;51.126;16.944;2024-02-04T06:02:57;100352.63;;;6.53;71.46
84617;BME280;74846;51.126;16.944;2024-02-04T06:05:25;100353.66;;;6.53;71.59
84617;BME280;74846;51.126;16.944;2024-02-04T06:07:53;100351.83;;;6.51;71.66
84617;BME280;74846;51.126;16.944;2024-02-04T06:10:21;100345.04;;;6.42;71.64
84617;BME280;74846;51.126;16.944;2024-02-04T06:12:49;100354.28;;;6.46;71.39
84617;BME280;74846;51.126;16.944;2024-02-04T06:15:17;100353.98;;;6.41;71.49
84617;BME280;74846;51.126;16.944;2024-02-04T06:17:45;100354.84;;;6.37;71.51
84617;BME280;74846;51.126;16.944;2024-02-04T06:20:13;100357.16;;;6.31;71.63
84617;BME280;74846;51.126;16.944;2024-02-04T06:22:41;100360.52;;;6.30;72.01
84617;BME280;74846;51.126;16.944;2024-02-04T06:25:09;100364.38;;;6.30;72.30
84617;BME280;74846;51.126;16.944;2024-02-04T06:27:37;100366.98;;;6.30;72.29
84617;BME280;74846;51.126;16.944;2024-02-04T06:30:06;100367.52;;;6.25;72.35
84617;BME280;74846;51.126;16.944;2024-02-04T06:32:37;100367.06;;;6.19;72.27
84617;BME280;74846;51.126;16.944;2024-02-04T06:35:06;100367.45;;;6.14;72.22
84617;BME280;74846;51.126;16.944;2024-02-04T06:37:35;100364.52;;;6.12;72.21
84617;BME280;74846;51.126;16.944;2024-02-04T06:40:03;100361.73;;;6.08;72.22
84617;BME280;74846;51.126;16.944;2024-02-04T06:42:32;100364.42;;;6.06;72.50
84617;BME280;74846;51.126;16.944;2024-02-04T06:45:00;100360.68;;;6.08;72.65
84617;BME280;74846;51.126;16.944;2024-02-04T06:47:29;100360.90;;;6.07;72.67
84617;BME280;74846;51.126;16.944;2024-02-04T06:49:57;100366.70;;;6.10;72.61
84617;BME280;74846;51.126;16.944;2024-02-04T06:52:25;100360.54;;;6.07;72.41
84617;BME280;74846;51.126;16.944;2024-02-04T06:54:53;100348.36;;;6.01;72.40
84617;BME280;74846;51.126;16.944;2024-02-04T06:57:21;100352.00;;;6.06;72.14
84617;BME280;74846;51.126;16.944;2024-02-04T06:59:49;100352.08;;;6.04;71.95
84617;BME280;74846;51.126;16.944;2024-02-04T07:02:17;100350.34;;;6.00;72.21
84617;BME280;74846;51.126;16.944;2024-02-04T07:04:44;100348.26;;;5.95;72.05
84617;BME280;74846;51.126;16.944;2024-02-04T07:07:13;100345.32;;;5.94;72.42
84617;BME280;74846;51.126;16.944;2024-02-04T07:09:41;100340.77;;;5.94;72.61
84617;BME280;74846;51.126;16.944;2024-02-04T07:12:09;100345.84;;;5.94;72.58
84617;BME280;74846;51.126;16.944;2024-02-04T07:14:37;100335.14;;;5.91;72.65
84617;BME280;74846;51.126;16.944;2024-02-04T07:17:05;100340.48;;;5.97;72.54
84617;BME280;74846;51.126;16.944;2024-02-04T07:19:33;100335.06;;;5.98;72.42
84617;BME280;74846;51.126;16.944;2024-02-04T07:22:03;100339.00;;;5.99;72.16
84617;BME280;74846;51.126;16.944;2024-02-04T07:24:31;100334.23;;;6.01;72.08
84617;BME280;74846;51.126;16.944;2024-02-04T07:26:59;100334.89;;;6.02;72.13
84617;BME280;74846;51.126;16.944;2024-02-04T07:29:27;100334.32;;;6.03;72.13
84617;BME280;74846;51.126;16.944;2024-02-04T07:31:55;100329.39;;;6.09;72.31
84617;BME280;74846;51.126;16.944;2024-02-04T07:34:24;100333.18;;;6.15;72.71
84617;BME280;74846;51.126;16.944;2024-02-04T07:36:52;100334.36;;;6.21;72.66
84617;BME280;74846;51.126;16.944;2024-02-04T07:39:20;100328.13;;;6.28;72.57
84617;BME280;74846;51.126;16.944;2024-02-04T07:41:48;100323.07;;;6.32;72.26
84617;BME280;74846;51.126;16.944;2024-02-04T07:44:16;100312.71;;;6.29;72.15
84617;BME280;74846;51.126;16.944;2024-02-04T07:46:44;100331.55;;;6.43;71.94
84617;BME280;74846;51.126;16.944;2024-02-04T07:49:12;100336.70;;;6.45;72.00
84617;BME280;74846;51.126;16.944;2024-02-04T07:51:40;100330.38;;;6.50;71.89
84617;BME280;74846;51.126;16.944;2024-02-04T07:54:08;100321.80;;;6.55;72.07
84617;BME280;74846;51.126;16.944;2024-02-04T07:56:36;100315.20;;;6.62;72.36
84617;BME280;74846;51.126;16.944;2024-02-04T07:59:04;100308.86;;;6.72;72.13
84617;BME280;74846;51.126;16.944;2024-02-04T08:01:32;100313.62;;;6.80;72.04
84617;BME280;74846;51.126;16.944;2024-02-04T08:04:00;100322.34;;;6.89;71.52
84617;BME280;74846;51.126;16.944;2024-02-04T08:06:30;100321.06;;;6.94;71.22
84617;BME280;74846;51.126;16.944;2024-02-04T08:08:58;100317.69;;;6.99;71.11
84617;BME280;74846;51.126;16.944;2024-02-04T08:11:26;100317.71;;;7.07;70.90
84617;BME280;74846;51.126;16.944;2024-02-04T08:13:54;100315.35;;;7.17;70.35
84617;BME280;74846;51.126;16.944;2024-02-04T08:16:22;100313.80;;;7.24;70.47
84617;BME280;74846;51.126;16.944;2024-02-04T08:18:50;100314.08;;;7.38;69.63
84617;BME280;74846;51.126;16.944;2024-02-04T08:21:18;100306.36;;;7.47;69.14
84617;BME280;74846;51.126;16.944;2024-02-04T08:23:46;100283.50;;;7.45;68.66
84617;BME280;74846;51.126;16.944;2024-02-04T08:26:14;100289.76;;;7.54;68.08
84617;BME280;74846;51.126;16.944;2024-02-04T08:28:42;100302.29;;;7.63;67.67
84617;BME280;74846;51.126;16.944;2024-02-04T08:31:10;100300.18;;;7.63;66.86
84617;BME280;74846;51.126;16.944;2024-02-04T08:33:39;100309.95;;;7.72;66.88
84617;BME280;74846;51.126;16.944;2024-02-04T08:36:07;100312.73;;;7.76;67.09
84617;BME280;74846;51.126;16.944;2024-02-04T08:38:38;100307.45;;;7.84;67.05
84617;BME280;74846;51.126;16.944;2024-02-04T08:41:06;100309.77;;;7.94;67.26
84617;BME280;74846;51.126;16.944;2024-02-04T08:43:34;100309.70;;;8.00;66.46
84617;BME280;74846;51.126;16.944;2024-02-04T08:46:02;100310.77;;;8.03;66.34
84617;BME280;74846;51.126;16.944;2024-02-04T08:48:41;100308.88;;;8.06;65.98
84617;BME280;74846;51.126;16.944;2024-02-04T08:51:11;100302.77;;;8.13;65.78
84617;BME280;74846;51.126;16.944;2024-02-04T08:53:41;100300.34;;;8.16;65.37
84617;BME280;74846;51.126;16.944;2024-02-04T08:56:09;100301.41;;;8.19;64.89
84617;BME280;74846;51.126;16.944;2024-02-04T08:58:37;100301.75;;;8.24;64.52
84617;BME280;74846;51.126;16.944;2024-02-04T09:01:05;100294.00;;;8.24;65.24
84617;BME280;74846;51.126;16.944;2024-02-04T09:03:33;100285.45;;;8.28;65.27
84617;BME280;74846;51.126;16.944;2024-02-04T09:06:02;100273.85;;;8.32;64.84
84617;BME280;74846;51.126;16.944;2024-02-04T09:08:30;100281.27;;;8.39;64.63
84617;BME280;74846;51.126;16.944;2024-02-04T09:10:58;100282.20;;;8.41;64.81
84617;BME280;74846;51.126;16.944;2024-02-04T09:13:26;100278.29;;;8.42;64.30
84617;BME280;74846;51.126;16.944;2024-02-04T09:15:54;100276.01;;;8.42;64.52
84617;BME280;74846;51.126;16.944;2024-02-04T09:18:23;100280.37;;;8.50;64.31
84617;BME280;74846;51.126;16.944;2024-02-04T09:20:52;100277.27;;;8.59;63.74
84617;BME280;74846;51.126;16.944;2024-02-04T09:23:20;100268.08;;;8.57;64.03
84617;BME280;74846;51.126;16.944;2024-02-04T09:25:48;100259.31;;;8.64;63.59
84617;BME280;74846;51.126;16.944;2024-02-04T09:28:16;100256.59;;;8.69;63.47
84617;BME280;74846;51.126;16.944;2024-02-04T09:30:46;100258.00;;;8.76;63.33
84617;BME280;74846;51.126;16.944;2024-02-04T09:33:15;100260.23;;;8.77;63.18
84617;BME280;74846;51.126;16.944;2024-02-04T09:35:43;100257.86;;;8.79;62.72
84617;BME280;74846;51.126;16.944;2024-02-04T09:38:12;100261.41;;;8.82;62.31
84617;BME280;74846;51.126;16.944;2024-02-04T09:40:41;100267.43;;;8.77;62.65
84617;BME280;74846;51.126;16.944;2024-02-04T09:43:10;100267.55;;;8.75;62.66
84617;BME280;74846;51.126;16.944;2024-02-04T09:45:39;100260.23;;;8.70;62.92
84617;BME280;74846;51.126;16.944;2024-02-04T09:48:08;100258.83;;;8.67;63.18
84617;BME280;74846;51.126;16.944;2024-02-04T09:50:37;100258.93;;;8.68;63.45
84617;BME280;74846;51.126;16.944;2024-02-04T09:53:07;100251.54;;;8.69;64.00
84617;BME280;74846;51.126;16.944;2024-02-04T09:55:38;100248.08;;;8.75;63.94
84617;BME280;74846;51.126;16.944;2024-02-04T09:58:07;100231.45;;;8.81;63.60
84617;BME280;74846;51.126;16.944;2024-02-04T10:00:38;100227.41;;;8.88;63.82
84617;BME280;74846;51.126;16.944;2024-02-04T10:03:07;100220.19;;;8.99;63.79
84617;BME280;74846;51.126;16.944;2024-02-04T10:05:36;100220.91;;;9.01;63.71
84617;BME280;74846;51.126;16.944;2024-02-04T10:08:04;100219.74;;;9.07;63.84
84617;BME280;74846;51.126;16.944;2024-02-04T10:10:33;100218.05;;;9.13;63.68
84617;BME280;74846;51.126;16.944;2024-02-04T10:13:10;100211.59;;;9.16;63.63
84617;BME280;74846;51.126;16.944;2024-02-04T10:15:38;100211.14;;;9.18;63.41
84617;BME280;74846;51.126;16.944;2024-02-04T10:18:07;100210.59;;;9.21;63.82
84617;BME280;74846;51.126;16.944;2024-02-04T10:20:36;100213.52;;;9.26;63.88
84617;BME280;74846;51.126;16.944;2024-02-04T10:23:04;100216.73;;;9.28;64.28
84617;BME280;74846;51.126;16.944;2024-02-04T10:25:32;100220.48;;;9.33;63.97
84617;BME280;74846;51.126;16.944;2024-02-04T10:28:00;100215.80;;;9.32;63.99
84617;BME280;74846;51.126;16.944;2024-02-04T10:30:28;100210.16;;;9.33;64.09
84617;BME280;74846;51.126;16.944;2024-02-04T10:32:56;100198.17;;;9.34;64.17
84617;BME280;74846;51.126;16.944;2024-02-04T10:35:24;100189.83;;;9.32;64.48
84617;BME280;74846;51.126;16.944;2024-02-04T10:37:52;100184.30;;;9.37;64.59
84617;BME280;74846;51.126;16.944;2024-02-04T10:40:20;100165.52;;;9.40;64.88
84617;BME280;74846;51.126;16.944;2024-02-04T10:42:48;100173.60;;;9.50;65.18
84617;BME280;74846;51.126;16.944;2024-02-04T10:45:19;100170.69;;;9.61;65.20
84617;BME280;74846;51.126;16.944;2024-02-04T10:47:55;100162.66;;;9.66;65.20
84617;BME280;74846;51.126;16.944;2024-02-04T10:50:25;100159.77;;;9.74;65.09
84617;BME280;74846;51.126;16.944;2024-02-04T10:52:57;100154.42;;;9.79;65.23
84617;BME280;74846;51.126;16.944;2024-02-04T10:55:28;100149.77;;;9.80;65.45
84617;BME280;74846;51.126;16.944;2024-02-04T10:57:59;100151.95;;;9.85;65.75
84617;BME280;74846;51.126;16.944;2024-02-04T11:00:27;100147.88;;;9.95;65.94
84617;BME280;74846;51.126;16.944;2024-02-04T11:02:56;100150.66;;;10.05;65.79
84617;BME280;74846;51.126;16.944;2024-02-04T11:05:26;100151.71;;;10.11;65.78
84617;BME280;74846;51.126;16.944;2024-02-04T11:07:54;100143.87;;;10.13;65.77
84617;BME280;74846;51.126;16.944;2024-02-04T11:10:24;100143.58;;;10.12;65.81
84617;BME280;74846;51.126;16.944;2024-02-04T11:12:57;100142.92;;;10.14;65.77
84617;BME280;74846;51.126;16.944;2024-02-04T11:15:30;100132.48;;;10.09;66.06
84617;BME280;74846;51.126;16.944;2024-02-04T11:26:27;100094.99;;;10.17;66.65
84617;BME280;74846;51.126;16.944;2024-02-04T11:28:56;100094.85;;;10.16;66.48
84617;BME280;74846;51.126;16.944;2024-02-04T11:31:28;100096.70;;;10.14;66.60
84617;BME280;74846;51.126;16.944;2024-02-04T11:33:56;100100.95;;;10.14;66.61
84617;BME280;74846;51.126;16.944;2024-02-04T11:36:25;100097.41;;;10.11;66.91
84617;BME280;74846;51.126;16.944;2024-02-04T11:38:53;100105.14;;;10.11;67.13
84617;BME280;74846;51.126;16.944;2024-02-04T11:41:22;100105.31;;;10.18;67.09
84617;BME280;74846;51.126;16.944;2024-02-04T11:43:53;100092.55;;;10.16;66.95
84617;BME280;74846;51.126;16.944;2024-02-04T11:46:30;100095.14;;;10.20;66.89
84617;BME280;74846;51.126;16.944;2024-02-04T11:49:01;100098.24;;;10.24;66.86
84617;BME280;74846;51.126;16.944;2024-02-04T11:51:30;100091.33;;;10.22;66.59
84617;BME280;74846;51.126;16.944;2024-02-04T11:53:58;100080.73;;;10.20;66.24
84617;BME280;74846;51.126;16.944;2024-02-04T11:56:29;100077.39;;;10.20;66.46
84617;BME280;74846;51.126;16.944;2024-02-04T11:58:58;100071.65;;;10.22;66.16
84617;BME280;74846;51.126;16.944;2024-02-04T12:01:26;100066.69;;;10.26;66.32
84617;BME280;74846;51.126;16.944;2024-02-04T12:03:55;100058.97;;;10.28;66.03
84617;BME280;74846;51.126;16.944;2024-02-04T12:06:23;100058.70;;;10.27;66.21
84617;BME280;74846;51.126;16.944;2024-02-04T12:08:51;100047.85;;;10.29;65.92
84617;BME280;74846;51.126;16.944;2024-02-04T12:11:19;100048.20;;;10.32;65.59
84617;BME280;74846;51.126;16.944;2024-02-04T12:13:50;100039.02;;;10.33;65.99
84617;BME280;74846;51.126;16.944;2024-02-04T12:16:18;100027.56;;;10.45;65.75
84617;BME280;74846;51.126;16.944;2024-02-04T12:18:48;100021.36;;;10.51;65.33
84617;BME280;74846;51.126;16.944;2024-02-04T12:21:17;100022.14;;;10.56;65.39
84617;BME280;74846;51.126;16.944;2024-02-04T12:23:45;100023.12;;;10.62;64.90
84617;BME280;74846;51.126;16.944;2024-02-04T12:26:13;100026.02;;;10.61;64.80
84617;BME280;74846;51.126;16.944;2024-02-04T12:28:42;100018.46;;;10.61;64.83
84617;BME280;74846;51.126;16.944;2024-02-04T12:31:17;100014.80;;;10.63;64.70
84617;BME280;74846;51.126;16.944;2024-02-04T12:33:59;100001.16;;;10.65;64.96
84617;BME280;74846;51.126;16.944;2024-02-04T12:36:31;99992.06;;;10.67;64.85
84617;BME280;74846;51.126;16.944;2024-02-04T12:39:01;99986.31;;;10.66;64.85
84617;BME280;74846;51.126;16.944;2024-02-04T12:41:29;99974.20;;;10.66;64.71
84617;BME280;74846;51.126;16.944;2024-02-04T12:43:59;99965.57;;;10.57;64.69
84617;BME280;74846;51.126;16.944;2024-02-04T12:46:28;99967.73;;;10.62;64.94
84617;BME280;74846;51.126;16.944;2024-02-04T12:48:58;99966.54;;;10.64;64.80
84617;BME280;74846;51.126;16.944;2024-02-04T12:51:33;99957.08;;;10.67;64.94
84617;BME280;74846;51.126;16.944;2024-02-04T12:54:05;99954.52;;;10.71;64.81
84617;BME280;74846;51.126;16.944;2024-02-04T12:56:51;99945.79;;;10.70;64.87
84617;BME280;74846;51.126;16.944;2024-02-04T12:59:32;99927.11;;;10.65;64.77
84617;BME280;74846;51.126;16.944;2024-02-04T13:02:04;99934.70;;;10.70;65.11
84617;BME280;74846;51.126;16.944;2024-02-04T13:04:37;99933.41;;;10.74;64.71
84617;BME280;74846;51.126;16.944;2024-02-04T13:07:10;99936.86;;;10.72;64.85
84617;BME280;74846;51.126;16.944;2024-02-04T13:09:43;99941.36;;;10.79;64.70
84617;BME280;74846;51.126;16.944;2024-02-04T13:12:14;99939.08;;;10.74;64.76
84617;BME280;74846;51.126;16.944;2024-02-04T13:14:43;99930.50;;;10.76;64.66